Steuben, Maine
Current Conditions -  °F | °C
As of 11:55 PM on Saturday 22 Nov 2014 (Local Time) from KBHB Reporting Station
Few Clouds Few Clouds  
Wind Chill: 34°   Ceiling: Unl
Heat Index: 39°   Visibility: 10mi
Dew Point: 21°   Wind: 7mph
Humidity: 49%   Direction: 250°WSW
Pressure: 29.93"   Gusts: NA
Location:  44.51°N, 67.97°W
Report Text: KBHB 230455Z AUTO 25006KT 10SM FEW110 04/M06 A2993 RMK AO1
Loading
Personal Weather Stations






























Interactive Weather Map New forecast layout! Learn more

10-Day Weather Forecast

Advertisements
Track Severe Weather on mobile